sensor_id;sensor_type;location;lat;lon;timestamp;P1;durP1;ratioP1;P2;durP2;ratioP2
83139;SDS011;73027;54.208;19.128;2024-03-08T00:02:02;36.03;;;16.08;;
83139;SDS011;73027;54.208;19.128;2024-03-08T00:04:28;31.88;;;14.50;;
83139;SDS011;73027;54.208;19.128;2024-03-08T00:06:54;26.75;;;12.70;;
83139;SDS011;73027;54.208;19.128;2024-03-08T00:09:19;27.60;;;11.70;;
83139;SDS011;73027;54.208;19.128;2024-03-08T00:11:46;24.88;;;11.60;;
83139;SDS011;73027;54.208;19.128;2024-03-08T00:14:11;23.75;;;10.35;;
83139;SDS011;73027;54.208;19.128;2024-03-08T00:16:37;26.92;;;10.00;;
83139;SDS011;73027;54.208;19.128;2024-03-08T00:19:03;22.90;;;9.30;;
83139;SDS011;73027;54.208;19.128;2024-03-08T00:21:29;31.35;;;13.90;;
83139;SDS011;73027;54.208;19.128;2024-03-08T00:23:54;25.85;;;12.73;;
83139;SDS011;73027;54.208;19.128;2024-03-08T00:26:20;23.90;;;10.23;;
83139;SDS011;73027;54.208;19.128;2024-03-08T00:28:47;23.10;;;9.80;;
83139;SDS011;73027;54.208;19.128;2024-03-08T00:31:13;26.10;;;11.05;;
83139;SDS011;73027;54.208;19.128;2024-03-08T00:33:39;27.67;;;11.05;;
83139;SDS011;73027;54.208;19.128;2024-03-08T00:36:05;25.15;;;10.20;;
83139;SDS011;73027;54.208;19.128;2024-03-08T00:38:30;29.17;;;12.55;;
83139;SDS011;73027;54.208;19.128;2024-03-08T00:40:56;26.45;;;11.85;;
83139;SDS011;73027;54.208;19.128;2024-03-08T00:43:22;29.17;;;11.60;;
83139;SDS011;73027;54.208;19.128;2024-03-08T00:45:47;24.50;;;11.73;;
83139;SDS011;73027;54.208;19.128;2024-03-08T00:48:12;32.22;;;13.88;;
83139;SDS011;73027;54.208;19.128;2024-03-08T00:50:38;30.70;;;12.90;;
83139;SDS011;73027;54.208;19.128;2024-03-08T00:53:03;28.63;;;13.20;;
83139;SDS011;73027;54.208;19.128;2024-03-08T00:55:29;33.75;;;14.48;;
83139;SDS011;73027;54.208;19.128;2024-03-08T00:57:55;33.22;;;13.88;;
83139;SDS011;73027;54.208;19.128;2024-03-08T01:00:20;34.90;;;15.98;;
83139;SDS011;73027;54.208;19.128;2024-03-08T01:02:46;28.83;;;13.52;;
83139;SDS011;73027;54.208;19.128;2024-03-08T01:05:12;34.83;;;16.92;;
83139;SDS011;73027;54.208;19.128;2024-03-08T01:07:38;33.25;;;13.52;;
83139;SDS011;73027;54.208;19.128;2024-03-08T01:10:04;38.60;;;17.92;;
83139;SDS011;73027;54.208;19.128;2024-03-08T01:12:34;31.85;;;14.95;;
83139;SDS011;73027;54.208;19.128;2024-03-08T01:14:59;31.55;;;14.55;;
83139;SDS011;73027;54.208;19.128;2024-03-08T01:17:25;32.42;;;14.55;;
83139;SDS011;73027;54.208;19.128;2024-03-08T01:19:51;30.27;;;12.27;;
83139;SDS011;73027;54.208;19.128;2024-03-08T01:22:16;30.05;;;12.07;;
83139;SDS011;73027;54.208;19.128;2024-03-08T01:24:41;25.60;;;12.10;;
83139;SDS011;73027;54.208;19.128;2024-03-08T01:27:07;26.20;;;12.98;;
83139;SDS011;73027;54.208;19.128;2024-03-08T01:29:34;27.08;;;11.73;;
83139;SDS011;73027;54.208;19.128;2024-03-08T01:31:59;28.98;;;11.57;;
83139;SDS011;73027;54.208;19.128;2024-03-08T01:34:26;26.05;;;11.93;;
83139;SDS011;73027;54.208;19.128;2024-03-08T01:36:53;27.50;;;11.15;;
83139;SDS011;73027;54.208;19.128;2024-03-08T01:39:21;25.92;;;12.48;;
83139;SDS011;73027;54.208;19.128;2024-03-08T01:41:47;30.13;;;12.90;;
83139;SDS011;73027;54.208;19.128;2024-03-08T01:44:12;28.42;;;11.30;;
83139;SDS011;73027;54.208;19.128;2024-03-08T01:46:42;29.25;;;11.35;;
83139;SDS011;73027;54.208;19.128;2024-03-08T01:49:09;26.80;;;12.40;;
83139;SDS011;73027;54.208;19.128;2024-03-08T01:51:36;29.08;;;13.52;;
83139;SDS011;73027;54.208;19.128;2024-03-08T01:54:02;26.13;;;11.45;;
83139;SDS011;73027;54.208;19.128;2024-03-08T01:56:29;31.10;;;12.05;;
83139;SDS011;73027;54.208;19.128;2024-03-08T01:58:55;32.13;;;11.75;;
83139;SDS011;73027;54.208;19.128;2024-03-08T02:01:20;24.52;;;11.82;;
83139;SDS011;73027;54.208;19.128;2024-03-08T02:03:46;29.23;;;12.55;;
83139;SDS011;73027;54.208;19.128;2024-03-08T02:06:11;26.23;;;10.23;;
83139;SDS011;73027;54.208;19.128;2024-03-08T02:08:39;26.80;;;10.88;;
83139;SDS011;73027;54.208;19.128;2024-03-08T02:11:06;28.77;;;12.75;;
83139;SDS011;73027;54.208;19.128;2024-03-08T02:13:32;27.98;;;12.18;;
83139;SDS011;73027;54.208;19.128;2024-03-08T02:15:59;31.25;;;12.98;;
83139;SDS011;73027;54.208;19.128;2024-03-08T02:18:27;29.35;;;11.18;;
83139;SDS011;73027;54.208;19.128;2024-03-08T02:20:54;26.88;;;10.68;;
83139;SDS011;73027;54.208;19.128;2024-03-08T02:23:24;31.92;;;12.82;;
83139;SDS011;73027;54.208;19.128;2024-03-08T02:25:52;28.08;;;11.93;;
83139;SDS011;73027;54.208;19.128;2024-03-08T02:28:19;28.95;;;10.88;;
83139;SDS011;73027;54.208;19.128;2024-03-08T02:30:45;23.08;;;10.75;;
83139;SDS011;73027;54.208;19.128;2024-03-08T02:33:17;24.80;;;9.82;;
83139;SDS011;73027;54.208;19.128;2024-03-08T02:35:43;30.88;;;11.55;;
83139;SDS011;73027;54.208;19.128;2024-03-08T02:38:16;25.70;;;10.88;;
83139;SDS011;73027;54.208;19.128;2024-03-08T02:40:43;28.45;;;11.00;;
83139;SDS011;73027;54.208;19.128;2024-03-08T02:43:09;28.30;;;10.93;;
83139;SDS011;73027;54.208;19.128;2024-03-08T02:45:35;32.13;;;9.80;;
83139;SDS011;73027;54.208;19.128;2024-03-08T02:48:01;21.42;;;9.23;;
83139;SDS011;73027;54.208;19.128;2024-03-08T02:50:27;22.92;;;9.43;;
83139;SDS011;73027;54.208;19.128;2024-03-08T02:52:52;25.98;;;9.98;;
83139;SDS011;73027;54.208;19.128;2024-03-08T02:55:17;25.50;;;8.85;;
83139;SDS011;73027;54.208;19.128;2024-03-08T02:57:43;23.90;;;10.07;;
83139;SDS011;73027;54.208;19.128;2024-03-08T03:00:09;28.65;;;11.45;;
83139;SDS011;73027;54.208;19.128;2024-03-08T03:02:35;31.80;;;10.88;;
83139;SDS011;73027;54.208;19.128;2024-03-08T03:05:02;32.35;;;10.60;;
83139;SDS011;73027;54.208;19.128;2024-03-08T03:07:31;27.30;;;10.18;;
83139;SDS011;73027;54.208;19.128;2024-03-08T03:09:58;22.35;;;8.48;;
83139;SDS011;73027;54.208;19.128;2024-03-08T03:12:23;23.40;;;8.13;;
83139;SDS011;73027;54.208;19.128;2024-03-08T03:14:49;20.00;;;8.27;;
83139;SDS011;73027;54.208;19.128;2024-03-08T03:17:14;26.73;;;9.15;;
83139;SDS011;73027;54.208;19.128;2024-03-08T03:19:42;21.67;;;7.80;;
83139;SDS011;73027;54.208;19.128;2024-03-08T03:22:08;19.45;;;7.10;;
83139;SDS011;73027;54.208;19.128;2024-03-08T03:24:35;20.45;;;7.72;;
83139;SDS011;73027;54.208;19.128;2024-03-08T03:27:03;18.15;;;7.03;;
83139;SDS011;73027;54.208;19.128;2024-03-08T03:29:35;18.85;;;7.13;;
83139;SDS011;73027;54.208;19.128;2024-03-08T03:32:10;22.67;;;7.43;;
83139;SDS011;73027;54.208;19.128;2024-03-08T03:37:04;19.38;;;7.30;;
83139;SDS011;73027;54.208;19.128;2024-03-08T03:39:30;21.67;;;7.20;;
83139;SDS011;73027;54.208;19.128;2024-03-08T03:41:59;20.90;;;7.63;;
83139;SDS011;73027;54.208;19.128;2024-03-08T03:44:27;20.10;;;6.90;;
83139;SDS011;73027;54.208;19.128;2024-03-08T03:46:52;22.42;;;7.15;;
83139;SDS011;73027;54.208;19.128;2024-03-08T03:49:18;20.35;;;7.10;;
83139;SDS011;73027;54.208;19.128;2024-03-08T03:51:43;25.00;;;9.20;;
83139;SDS011;73027;54.208;19.128;2024-03-08T03:54:09;26.08;;;8.70;;
83139;SDS011;73027;54.208;19.128;2024-03-08T03:56:35;23.70;;;7.93;;
83139;SDS011;73027;54.208;19.128;2024-03-08T03:59:00;28.02;;;10.05;;
83139;SDS011;73027;54.208;19.128;2024-03-08T04:01:26;33.13;;;11.25;;
83139;SDS011;73027;54.208;19.128;2024-03-08T04:03:51;32.75;;;11.82;;
83139;SDS011;73027;54.208;19.128;2024-03-08T04:06:17;42.03;;;12.63;;
83139;SDS011;73027;54.208;19.128;2024-03-08T04:08:42;38.90;;;13.15;;
83139;SDS011;73027;54.208;19.128;2024-03-08T04:11:08;36.72;;;11.35;;
83139;SDS011;73027;54.208;19.128;2024-03-08T04:13:36;28.52;;;10.48;;
83139;SDS011;73027;54.208;19.128;2024-03-08T04:16:01;27.05;;;10.63;;
83139;SDS011;73027;54.208;19.128;2024-03-08T04:18:27;26.90;;;9.30;;
83139;SDS011;73027;54.208;19.128;2024-03-08T04:20:53;24.58;;;9.02;;
83139;SDS011;73027;54.208;19.128;2024-03-08T04:23:18;27.58;;;9.93;;
83139;SDS011;73027;54.208;19.128;2024-03-08T04:25:44;29.05;;;11.10;;
83139;SDS011;73027;54.208;19.128;2024-03-08T04:28:10;31.92;;;11.43;;
83139;SDS011;73027;54.208;19.128;2024-03-08T04:30:38;29.95;;;11.00;;
83139;SDS011;73027;54.208;19.128;2024-03-08T04:33:07;36.03;;;11.88;;
83139;SDS011;73027;54.208;19.128;2024-03-08T04:35:33;31.30;;;12.20;;
83139;SDS011;73027;54.208;19.128;2024-03-08T04:37:59;35.78;;;13.40;;
83139;SDS011;73027;54.208;19.128;2024-03-08T04:40:24;36.53;;;14.75;;
83139;SDS011;73027;54.208;19.128;2024-03-08T04:42:50;42.08;;;16.40;;
83139;SDS011;73027;54.208;19.128;2024-03-08T04:45:17;53.63;;;18.05;;
83139;SDS011;73027;54.208;19.128;2024-03-08T04:47:42;43.05;;;18.27;;
83139;SDS011;73027;54.208;19.128;2024-03-08T04:50:08;44.40;;;19.50;;
83139;SDS011;73027;54.208;19.128;2024-03-08T04:52:36;38.65;;;15.88;;
83139;SDS011;73027;54.208;19.128;2024-03-08T04:55:02;44.85;;;16.38;;
83139;SDS011;73027;54.208;19.128;2024-03-08T04:59:55;26.10;;;8.57;;
83139;SDS011;73027;54.208;19.128;2024-03-08T05:02:21;18.75;;;7.72;;
83139;SDS011;73027;54.208;19.128;2024-03-08T05:04:47;18.20;;;6.57;;
83139;SDS011;73027;54.208;19.128;2024-03-08T05:07:13;22.52;;;8.98;;
83139;SDS011;73027;54.208;19.128;2024-03-08T05:09:38;19.77;;;7.40;;
83139;SDS011;73027;54.208;19.128;2024-03-08T05:12:05;27.02;;;9.68;;
83139;SDS011;73027;54.208;19.128;2024-03-08T05:14:31;48.00;;;24.70;;
83139;SDS011;73027;54.208;19.128;2024-03-08T05:16:56;23.30;;;9.88;;
83139;SDS011;73027;54.208;19.128;2024-03-08T05:19:22;37.75;;;15.07;;
83139;SDS011;73027;54.208;19.128;2024-03-08T05:21:47;37.42;;;12.95;;
83139;SDS011;73027;54.208;19.128;2024-03-08T05:24:14;37.67;;;15.38;;
83139;SDS011;73027;54.208;19.128;2024-03-08T05:26:40;35.55;;;11.38;;
83139;SDS011;73027;54.208;19.128;2024-03-08T05:29:06;39.72;;;13.43;;
83139;SDS011;73027;54.208;19.128;2024-03-08T05:31:41;38.55;;;16.38;;
83139;SDS011;73027;54.208;19.128;2024-03-08T05:34:12;28.58;;;11.20;;
83139;SDS011;73027;54.208;19.128;2024-03-08T05:36:39;27.92;;;8.20;;
83139;SDS011;73027;54.208;19.128;2024-03-08T05:39:05;26.15;;;8.38;;
83139;SDS011;73027;54.208;19.128;2024-03-08T05:41:31;41.67;;;14.20;;
83139;SDS011;73027;54.208;19.128;2024-03-08T05:43:57;38.13;;;11.82;;
83139;SDS011;73027;54.208;19.128;2024-03-08T05:46:22;40.63;;;13.23;;
83139;SDS011;73027;54.208;19.128;2024-03-08T05:48:48;49.28;;;12.88;;
83139;SDS011;73027;54.208;19.128;2024-03-08T05:51:13;56.00;;;19.38;;
83139;SDS011;73027;54.208;19.128;2024-03-08T05:53:39;70.00;;;25.13;;
83139;SDS011;73027;54.208;19.128;2024-03-08T05:56:04;35.67;;;10.25;;
83139;SDS011;73027;54.208;19.128;2024-03-08T05:58:30;35.80;;;10.65;;
83139;SDS011;73027;54.208;19.128;2024-03-08T06:00:56;62.72;;;30.10;;
83139;SDS011;73027;54.208;19.128;2024-03-08T06:03:22;75.50;;;22.05;;
83139;SDS011;73027;54.208;19.128;2024-03-08T06:05:50;55.95;;;22.00;;
83139;SDS011;73027;54.208;19.128;2024-03-08T06:08:15;51.60;;;18.45;;
83139;SDS011;73027;54.208;19.128;2024-03-08T06:10:41;38.00;;;12.90;;
83139;SDS011;73027;54.208;19.128;2024-03-08T06:13:06;29.85;;;9.35;;
83139;SDS011;73027;54.208;19.128;2024-03-08T06:15:32;36.00;;;10.77;;
83139;SDS011;73027;54.208;19.128;2024-03-08T06:17:57;19.38;;;7.63;;
83139;SDS011;73027;54.208;19.128;2024-03-08T06:20:23;18.27;;;6.75;;
83139;SDS011;73027;54.208;19.128;2024-03-08T06:22:51;16.90;;;7.13;;
83139;SDS011;73027;54.208;19.128;2024-03-08T06:25:17;12.27;;;5.72;;
83139;SDS011;73027;54.208;19.128;2024-03-08T06:27:43;15.20;;;6.43;;
83139;SDS011;73027;54.208;19.128;2024-03-08T06:30:09;16.48;;;6.15;;
83139;SDS011;73027;54.208;19.128;2024-03-08T06:32:38;12.45;;;5.45;;
83139;SDS011;73027;54.208;19.128;2024-03-08T06:35:04;17.25;;;6.13;;
83139;SDS011;73027;54.208;19.128;2024-03-08T06:37:31;10.85;;;5.28;;
83139;SDS011;73027;54.208;19.128;2024-03-08T06:40:00;14.02;;;5.78;;
83139;SDS011;73027;54.208;19.128;2024-03-08T06:42:29;12.68;;;5.18;;
83139;SDS011;73027;54.208;19.128;2024-03-08T06:45:00;13.27;;;5.18;;
83139;SDS011;73027;54.208;19.128;2024-03-08T06:47:29;13.07;;;5.70;;
83139;SDS011;73027;54.208;19.128;2024-03-08T06:49:55;19.77;;;9.95;;
83139;SDS011;73027;54.208;19.128;2024-03-08T06:52:20;25.83;;;11.35;;
83139;SDS011;73027;54.208;19.128;2024-03-08T06:54:47;29.17;;;14.45;;
83139;SDS011;73027;54.208;19.128;2024-03-08T06:57:12;28.00;;;11.38;;
83139;SDS011;73027;54.208;19.128;2024-03-08T06:59:38;21.40;;;9.55;;
83139;SDS011;73027;54.208;19.128;2024-03-08T07:02:04;25.10;;;11.35;;
83139;SDS011;73027;54.208;19.128;2024-03-08T07:04:29;18.92;;;8.23;;
83139;SDS011;73027;54.208;19.128;2024-03-08T07:09:23;21.27;;;8.55;;
83139;SDS011;73027;54.208;19.128;2024-03-08T07:11:49;19.13;;;7.28;;
83139;SDS011;73027;54.208;19.128;2024-03-08T07:14:20;16.35;;;8.23;;
83139;SDS011;73027;54.208;19.128;2024-03-08T07:16:49;28.95;;;14.48;;
83139;SDS011;73027;54.208;19.128;2024-03-08T07:19:15;28.13;;;13.10;;
83139;SDS011;73027;54.208;19.128;2024-03-08T07:21:42;21.65;;;9.15;;
83139;SDS011;73027;54.208;19.128;2024-03-08T07:24:10;23.80;;;8.55;;
83139;SDS011;73027;54.208;19.128;2024-03-08T07:26:39;24.10;;;9.30;;
83139;SDS011;73027;54.208;19.128;2024-03-08T07:29:05;30.55;;;10.93;;
83139;SDS011;73027;54.208;19.128;2024-03-08T07:31:30;21.35;;;8.95;;
83139;SDS011;73027;54.208;19.128;2024-03-08T07:34:01;21.65;;;10.15;;
83139;SDS011;73027;54.208;19.128;2024-03-08T07:36:28;37.40;;;10.52;;
83139;SDS011;73027;54.208;19.128;2024-03-08T07:38:53;23.77;;;10.60;;
83139;SDS011;73027;54.208;19.128;2024-03-08T07:41:19;32.70;;;12.80;;
83139;SDS011;73027;54.208;19.128;2024-03-08T07:43:45;44.10;;;18.27;;
83139;SDS011;73027;54.208;19.128;2024-03-08T07:46:10;31.92;;;8.43;;
83139;SDS011;73027;54.208;19.128;2024-03-08T07:48:36;23.45;;;10.23;;
83139;SDS011;73027;54.208;19.128;2024-03-08T07:51:01;23.45;;;8.50;;
83139;SDS011;73027;54.208;19.128;2024-03-08T07:53:28;21.17;;;8.10;;
83139;SDS011;73027;54.208;19.128;2024-03-08T07:55:53;25.58;;;8.13;;
83139;SDS011;73027;54.208;19.128;2024-03-08T07:58:19;20.60;;;7.45;;
83139;SDS011;73027;54.208;19.128;2024-03-08T08:00:44;17.52;;;8.05;;
83139;SDS011;73027;54.208;19.128;2024-03-08T08:03:10;16.92;;;7.00;;
83139;SDS011;73027;54.208;19.128;2024-03-08T08:05:35;25.05;;;9.32;;
83139;SDS011;73027;54.208;19.128;2024-03-08T08:10:31;13.80;;;5.85;;
83139;SDS011;73027;54.208;19.128;2024-03-08T08:12:59;22.45;;;10.90;;
83139;SDS011;73027;54.208;19.128;2024-03-08T08:15:25;14.18;;;5.93;;
83139;SDS011;73027;54.208;19.128;2024-03-08T08:17:50;30.23;;;10.07;;
83139;SDS011;73027;54.208;19.128;2024-03-08T08:20:17;22.88;;;8.05;;
83139;SDS011;73027;54.208;19.128;2024-03-08T08:22:43;19.48;;;8.18;;
83139;SDS011;73027;54.208;19.128;2024-03-08T08:25:09;34.22;;;16.67;;
83139;SDS011;73027;54.208;19.128;2024-03-08T08:27:38;19.55;;;9.32;;
83139;SDS011;73027;54.208;19.128;2024-03-08T08:30:09;31.33;;;10.18;;
83139;SDS011;73027;54.208;19.128;2024-03-08T08:32:36;19.00;;;6.18;;
83139;SDS011;73027;54.208;19.128;2024-03-08T08:35:02;26.55;;;8.77;;
83139;SDS011;73027;54.208;19.128;2024-03-08T08:37:29;28.75;;;11.05;;
83139;SDS011;73027;54.208;19.128;2024-03-08T08:39:56;19.48;;;7.10;;
83139;SDS011;73027;54.208;19.128;2024-03-08T08:42:21;23.73;;;8.45;;
83139;SDS011;73027;54.208;19.128;2024-03-08T08:44:47;29.23;;;8.32;;
83139;SDS011;73027;54.208;19.128;2024-03-08T08:47:14;13.90;;;5.63;;
83139;SDS011;73027;54.208;19.128;2024-03-08T08:49:43;27.35;;;7.20;;
83139;SDS011;73027;54.208;19.128;2024-03-08T08:52:11;27.92;;;7.28;;
83139;SDS011;73027;54.208;19.128;2024-03-08T08:54:36;26.25;;;7.53;;
83139;SDS011;73027;54.208;19.128;2024-03-08T08:57:02;27.27;;;9.05;;
83139;SDS011;73027;54.208;19.128;2024-03-08T08:59:32;45.88;;;20.10;;
83139;SDS011;73027;54.208;19.128;2024-03-08T09:01:58;29.75;;;10.00;;
83139;SDS011;73027;54.208;19.128;2024-03-08T09:04:23;20.05;;;8.10;;
83139;SDS011;73027;54.208;19.128;2024-03-08T09:06:49;25.83;;;9.40;;
83139;SDS011;73027;54.208;19.128;2024-03-08T09:09:17;32.22;;;14.07;;
83139;SDS011;73027;54.208;19.128;2024-03-08T09:11:43;21.67;;;11.35;;
83139;SDS011;73027;54.208;19.128;2024-03-08T09:14:09;28.42;;;13.02;;
83139;SDS011;73027;54.208;19.128;2024-03-08T09:16:36;44.40;;;14.98;;
83139;SDS011;73027;54.208;19.128;2024-03-08T09:19:02;18.65;;;8.93;;
83139;SDS011;73027;54.208;19.128;2024-03-08T09:21:27;26.35;;;9.95;;
83139;SDS011;73027;54.208;19.128;2024-03-08T09:23:53;38.60;;;21.85;;
83139;SDS011;73027;54.208;19.128;2024-03-08T09:26:18;38.65;;;17.05;;
83139;SDS011;73027;54.208;19.128;2024-03-08T09:28:44;24.23;;;9.93;;
83139;SDS011;73027;54.208;19.128;2024-03-08T09:31:10;33.97;;;12.90;;
83139;SDS011;73027;54.208;19.128;2024-03-08T09:33:36;26.00;;;11.88;;
83139;SDS011;73027;54.208;19.128;2024-03-08T09:36:02;34.42;;;10.23;;
83139;SDS011;73027;54.208;19.128;2024-03-08T09:38:28;30.98;;;12.82;;
83139;SDS011;73027;54.208;19.128;2024-03-08T09:40:54;20.13;;;9.73;;
83139;SDS011;73027;54.208;19.128;2024-03-08T09:43:22;25.15;;;10.55;;
83139;SDS011;73027;54.208;19.128;2024-03-08T09:45:49;30.92;;;14.02;;
83139;SDS011;73027;54.208;19.128;2024-03-08T09:48:16;22.95;;;10.88;;
83139;SDS011;73027;54.208;19.128;2024-03-08T09:50:44;45.35;;;14.75;;
83139;SDS011;73027;54.208;19.128;2024-03-08T09:53:10;24.63;;;7.43;;
83139;SDS011;73027;54.208;19.128;2024-03-08T09:55:37;21.85;;;9.65;;
83139;SDS011;73027;54.208;19.128;2024-03-08T09:58:06;9.52;;;4.20;;
83139;SDS011;73027;54.208;19.128;2024-03-08T10:00:52;29.10;;;10.48;;
83139;SDS011;73027;54.208;19.128;2024-03-08T10:03:19;16.35;;;6.10;;
83139;SDS011;73027;54.208;19.128;2024-03-08T10:05:44;15.48;;;6.18;;
83139;SDS011;73027;54.208;19.128;2024-03-08T10:08:10;17.85;;;9.90;;
83139;SDS011;73027;54.208;19.128;2024-03-08T10:10:37;12.60;;;5.35;;
83139;SDS011;73027;54.208;19.128;2024-03-08T10:13:06;16.23;;;6.35;;
83139;SDS011;73027;54.208;19.128;2024-03-08T10:15:32;13.45;;;6.43;;
83139;SDS011;73027;54.208;19.128;2024-03-08T10:18:00;33.60;;;7.00;;
83139;SDS011;73027;54.208;19.128;2024-03-08T10:20:32;24.33;;;9.95;;
83139;SDS011;73027;54.208;19.128;2024-03-08T10:22:59;35.20;;;12.20;;
83139;SDS011;73027;54.208;19.128;2024-03-08T10:25:29;41.15;;;12.73;;
83139;SDS011;73027;54.208;19.128;2024-03-08T10:27:59;22.85;;;8.10;;
83139;SDS011;73027;54.208;19.128;2024-03-08T10:30:24;15.77;;;5.28;;
83139;SDS011;73027;54.208;19.128;2024-03-08T10:32:50;15.80;;;5.38;;
83139;SDS011;73027;54.208;19.128;2024-03-08T10:35:16;13.48;;;5.85;;
83139;SDS011;73027;54.208;19.128;2024-03-08T10:37:49;27.02;;;9.90;;
83139;SDS011;73027;54.208;19.128;2024-03-08T10:40:22;43.85;;;13.30;;
83139;SDS011;73027;54.208;19.128;2024-03-08T10:48:02;17.48;;;7.00;;
83139;SDS011;73027;54.208;19.128;2024-03-08T10:50:35;15.25;;;6.15;;
83139;SDS011;73027;54.208;19.128;2024-03-08T10:53:03;20.35;;;9.18;;
83139;SDS011;73027;54.208;19.128;2024-03-08T10:55:31;18.65;;;8.10;;
83139;SDS011;73027;54.208;19.128;2024-03-08T10:57:58;22.58;;;8.80;;
83139;SDS011;73027;54.208;19.128;2024-03-08T11:00:25;25.90;;;10.45;;
83139;SDS011;73027;54.208;19.128;2024-03-08T11:02:55;13.32;;;5.85;;
83139;SDS011;73027;54.208;19.128;2024-03-08T11:05:37;25.13;;;10.20;;
83139;SDS011;73027;54.208;19.128;2024-03-08T11:08:19;35.92;;;9.55;;
83139;SDS011;73027;54.208;19.128;2024-03-08T11:18:50;14.93;;;7.35;;
83139;SDS011;73027;54.208;19.128;2024-03-08T11:21:19;17.83;;;7.05;;
83139;SDS011;73027;54.208;19.128;2024-03-08T11:23:58;16.85;;;7.70;;
83139;SDS011;73027;54.208;19.128;2024-03-08T11:26:28;13.50;;;6.45;;
83139;SDS011;73027;54.208;19.128;2024-03-08T11:29:12;23.70;;;7.93;;
83139;SDS011;73027;54.208;19.128;2024-03-08T11:31:50;20.92;;;6.82;;
83139;SDS011;73027;54.208;19.128;2024-03-08T11:34:16;29.63;;;10.05;;
83139;SDS011;73027;54.208;19.128;2024-03-08T11:36:41;34.67;;;10.00;;
83139;SDS011;73027;54.208;19.128;2024-03-08T11:39:07;31.70;;;9.48;;
83139;SDS011;73027;54.208;19.128;2024-03-08T11:41:39;44.38;;;9.52;;
83139;SDS011;73027;54.208;19.128;2024-03-08T11:44:06;24.73;;;10.82;;
83139;SDS011;73027;54.208;19.128;2024-03-08T11:46:33;18.40;;;10.20;;
83139;SDS011;73027;54.208;19.128;2024-03-08T11:48:59;24.35;;;8.30;;
83139;SDS011;73027;54.208;19.128;2024-03-08T11:51:25;12.40;;;6.80;;
83139;SDS011;73027;54.208;19.128;2024-03-08T11:53:52;14.02;;;7.72;;
83139;SDS011;73027;54.208;19.128;2024-03-08T11:56:18;19.08;;;9.93;;
83139;SDS011;73027;54.208;19.128;2024-03-08T11:58:55;11.07;;;5.32;;
83139;SDS011;73027;54.208;19.128;2024-03-08T12:01:22;10.93;;;5.45;;
83139;SDS011;73027;54.208;19.128;2024-03-08T12:03:55;11.50;;;6.60;;
83139;SDS011;73027;54.208;19.128;2024-03-08T12:06:25;15.65;;;5.60;;
83139;SDS011;73027;54.208;19.128;2024-03-08T12:08:52;14.65;;;5.38;;
83139;SDS011;73027;54.208;19.128;2024-03-08T12:11:18;10.32;;;4.53;;
83139;SDS011;73027;54.208;19.128;2024-03-08T12:13:48;20.55;;;10.02;;
83139;SDS011;73027;54.208;19.128;2024-03-08T12:18:42;22.50;;;7.63;;
83139;SDS011;73027;54.208;19.128;2024-03-08T12:21:10;16.60;;;4.50;;
83139;SDS011;73027;54.208;19.128;2024-03-08T12:23:38;12.60;;;3.53;;
83139;SDS011;73027;54.208;19.128;2024-03-08T12:26:16;10.60;;;3.15;;
83139;SDS011;73027;54.208;19.128;2024-03-08T12:28:52;10.35;;;2.75;;
83139;SDS011;73027;54.208;19.128;2024-03-08T12:31:17;10.48;;;3.70;;
83139;SDS011;73027;54.208;19.128;2024-03-08T12:33:52;35.28;;;16.38;;
83139;SDS011;73027;54.208;19.128;2024-03-08T12:36:18;23.02;;;5.50;;
83139;SDS011;73027;54.208;19.128;2024-03-08T12:38:45;12.02;;;4.55;;
83139;SDS011;73027;54.208;19.128;2024-03-08T12:41:14;19.13;;;5.57;;
83139;SDS011;73027;54.208;19.128;2024-03-08T12:43:43;18.67;;;6.75;;
83139;SDS011;73027;54.208;19.128;2024-03-08T12:46:19;13.07;;;3.95;;
83139;SDS011;73027;54.208;19.128;2024-03-08T12:48:45;6.97;;;1.83;;
83139;SDS011;73027;54.208;19.128;2024-03-08T12:51:15;32.65;;;4.30;;
83139;SDS011;73027;54.208;19.128;2024-03-08T12:53:44;14.73;;;3.95;;
83139;SDS011;73027;54.208;19.128;2024-03-08T12:56:14;8.88;;;2.97;;
83139;SDS011;73027;54.208;19.128;2024-03-08T12:58:53;5.28;;;1.30;;
83139;SDS011;73027;54.208;19.128;2024-03-08T13:01:18;14.98;;;4.20;;
83139;SDS011;73027;54.208;19.128;2024-03-08T13:03:44;4.18;;;1.45;;
83139;SDS011;73027;54.208;19.128;2024-03-08T13:06:09;26.52;;;7.53;;
83139;SDS011;73027;54.208;19.128;2024-03-08T13:08:35;22.60;;;11.27;;
83139;SDS011;73027;54.208;19.128;2024-03-08T13:11:04;53.33;;;28.42;;
83139;SDS011;73027;54.208;19.128;2024-03-08T13:13:30;12.80;;;6.38;;
83139;SDS011;73027;54.208;19.128;2024-03-08T13:15:55;29.27;;;15.05;;
83139;SDS011;73027;54.208;19.128;2024-03-08T13:18:22;27.92;;;9.55;;
83139;SDS011;73027;54.208;19.128;2024-03-08T13:20:48;47.35;;;26.83;;
83139;SDS011;73027;54.208;19.128;2024-03-08T13:23:16;6.10;;;2.97;;
83139;SDS011;73027;54.208;19.128;2024-03-08T13:25:42;6.53;;;2.67;;
83139;SDS011;73027;54.208;19.128;2024-03-08T13:28:08;11.93;;;2.45;;
83139;SDS011;73027;54.208;19.128;2024-03-08T13:30:33;7.07;;;2.20;;
83139;SDS011;73027;54.208;19.128;2024-03-08T13:33:00;7.10;;;2.60;;
83139;SDS011;73027;54.208;19.128;2024-03-08T13:35:26;8.60;;;1.55;;
83139;SDS011;73027;54.208;19.128;2024-03-08T13:37:52;6.07;;;2.10;;
83139;SDS011;73027;54.208;19.128;2024-03-08T13:40:17;5.70;;;2.10;;
83139;SDS011;73027;54.208;19.128;2024-03-08T13:42:46;13.65;;;5.43;;
83139;SDS011;73027;54.208;19.128;2024-03-08T13:47:42;8.68;;;2.92;;
83139;SDS011;73027;54.208;19.128;2024-03-08T13:50:09;14.68;;;3.97;;
83139;SDS011;73027;54.208;19.128;2024-03-08T13:52:41;11.45;;;7.10;;
83139;SDS011;73027;54.208;19.128;2024-03-08T13:55:08;10.75;;;4.15;;
83139;SDS011;73027;54.208;19.128;2024-03-08T13:57:34;12.40;;;5.93;;
83139;SDS011;73027;54.208;19.128;2024-03-08T14:00:00;11.98;;;4.47;;
83139;SDS011;73027;54.208;19.128;2024-03-08T14:02:25;16.30;;;4.25;;
83139;SDS011;73027;54.208;19.128;2024-03-08T14:04:55;9.57;;;3.38;;
83139;SDS011;73027;54.208;19.128;2024-03-08T14:07:22;9.93;;;3.80;;
83139;SDS011;73027;54.208;19.128;2024-03-08T14:09:48;13.02;;;5.65;;
83139;SDS011;73027;54.208;19.128;2024-03-08T14:12:14;7.03;;;2.35;;
83139;SDS011;73027;54.208;19.128;2024-03-08T14:14:43;11.05;;;2.88;;
83139;SDS011;73027;54.208;19.128;2024-03-08T14:17:09;14.50;;;4.05;;
83139;SDS011;73027;54.208;19.128;2024-03-08T14:19:37;6.35;;;3.03;;
83139;SDS011;73027;54.208;19.128;2024-03-08T14:22:04;14.07;;;4.55;;
83139;SDS011;73027;54.208;19.128;2024-03-08T14:24:30;15.85;;;5.82;;
83139;SDS011;73027;54.208;19.128;2024-03-08T14:26:56;12.05;;;4.30;;
83139;SDS011;73027;54.208;19.128;2024-03-08T14:29:23;9.15;;;4.32;;
83139;SDS011;73027;54.208;19.128;2024-03-08T14:31:57;14.60;;;5.80;;
83139;SDS011;73027;54.208;19.128;2024-03-08T14:34:24;9.68;;;3.90;;
83139;SDS011;73027;54.208;19.128;2024-03-08T14:36:54;18.02;;;7.72;;
83139;SDS011;73027;54.208;19.128;2024-03-08T14:39:19;13.95;;;3.67;;
83139;SDS011;73027;54.208;19.128;2024-03-08T14:41:51;16.75;;;11.98;;
83139;SDS011;73027;54.208;19.128;2024-03-08T14:44:22;15.88;;;8.68;;